Time;durP1;ratioP1;P1;durP2;ratioP2;P2;SDS_P1;SDS_P2;PMS_P1;PMS_P2;Temp;Humidity;BMP_temperature;BMP_pressure;BME280_temperature;BME280_humidity;BME280_pressure;Samples;Min_cycle;Max_cycle;Signal;HPM_P1;HPM_P2
2021/06/26 11:59:57;;;;;;;6.28;4.20;;;;;;;24.34;59.88;100470.66;5065123;27;1420926;-84
2021/06/26 12:02:31;;;;;;;6.93;4.05;;;;;;;24.35;60.49;100475.06;5070877;27;96908;-84
2021/06/26 12:04:57;;;;;;;4.03;3.63;;;;;;;24.53;60.08;100478.78;5058450;27;101362;-82
2021/06/26 12:07:32;;;;;;;5.28;3.47;;;;;;;24.78;59.03;100473.88;5059500;27;98360;-83
2021/06/26 12:09:58;;;;;;;5.63;3.40;;;;;;;24.81;59.68;100463.72;5073926;27;96915;-82
2021/06/26 12:12:23;;;;;;;4.65;4.03;;;;;;;24.97;59.65;100465.81;5067379;27;96944;-86
2021/06/26 12:14:49;;;;;;;7.07;3.75;;;;;;;25.07;59.26;100472.06;5048194;27;101734;-86
2021/06/26 12:17:16;;;;;;;6.82;4.47;;;;;;;25.07;59.00;100465.81;5074685;27;101394;-87
2021/06/26 12:19:42;;;;;;;6.50;3.97;;;;;;;25.06;59.44;100461.44;5054851;27;97216;-90
2021/06/26 12:22:08;;;;;;;6.38;4.50;;;;;;;25.08;59.53;100454.94;5072567;27;97384;-87
2021/06/26 12:24:39;;;;;;;6.25;3.83;;;;;;;25.13;58.23;100461.72;5054330;27;101330;-86
2021/06/26 12:27:12;;;;;;;4.88;3.75;;;;;;;25.32;57.52;100461.72;5053031;27;100359;-84
2021/06/26 12:29:39;;;;;;;4.55;3.60;;;;;;;25.26;57.98;100459.63;5052372;27;97226;-78
2021/06/26 12:32:05;;;;;;;4.20;3.78;;;;;;;25.24;58.03;100454.38;5052350;27;96961;-80
2021/06/26 12:34:31;;;;;;;7.78;3.88;;;;;;;25.15;58.41;100457.94;5048928;27;101500;-81
2021/06/26 12:36:59;;;;;;;6.65;3.83;;;;;;;24.85;59.66;100456.22;5053871;27;101737;-81
2021/06/26 12:39:32;;;;;;;6.57;4.20;;;;;;;24.99;60.04;100460.31;5040732;27;97117;-81
2021/06/26 12:42:02;;;;;;;7.80;3.88;;;;;;;24.88;60.00;100461.31;5076672;27;97229;-80
2021/06/26 12:44:28;;;;;;;5.90;3.77;;;;;;;24.91;59.40;100465.56;5089782;27;98076;-80
2021/06/26 12:46:54;;;;;;;6.75;4.03;;;;;;;24.72;59.75;100464.53;5049963;27;101534;-80
2021/06/26 12:49:21;;;;;;;6.38;4.13;;;;;;;24.70;61.10;100469.22;5066005;27;97117;-81
2021/06/26 12:51:47;;;;;;;6.88;3.50;;;;;;;24.63;61.22;100462.69;5049872;27;97383;-81
2021/06/26 12:54:13;;;;;;;5.55;4.20;;;;;;;24.70;61.49;100463.00;5057198;27;97946;-80
2021/06/26 12:56:42;;;;;;;4.68;4.18;;;;;;;24.73;61.05;100457.34;5059599;27;101005;-85
2021/06/26 12:59:12;;;;;;;4.18;3.42;;;;;;;24.83;60.14;100455.50;5070947;27;97285;-82
2021/06/26 13:01:45;;;;;;;5.30;3.87;;;;;;;24.88;60.04;100449.72;5069007;27;97247;-79
2021/06/26 13:04:19;;;;;;;4.20;3.80;;;;;;;24.83;60.13;100445.63;5067540;27;101558;-84
2021/06/26 13:06:55;;;;;;;5.63;3.90;;;;;;;24.67;60.58;100452.53;5071924;27;101313;-81
2021/06/26 13:09:38;;;;;;;4.72;4.07;;;;;;;24.76;60.19;100435.59;5068249;27;97362;-81
2021/06/26 13:12:25;;;;;;;8.35;3.80;;;;;;;24.71;59.58;100440.53;5055081;27;97082;-82
2021/06/26 13:14:55;;;;;;;3.97;3.28;;;;;;;24.61;60.82;100444.06;5058141;27;98444;-81
2021/06/26 13:17:22;;;;;;;4.13;3.72;;;;;;;24.78;59.41;100441.66;5074085;27;99909;-81
2021/06/26 13:19:49;;;;;;;5.45;3.58;;;;;;;24.86;60.26;100439.13;5057968;27;97247;-80
2021/06/26 13:22:16;;;;;;;4.45;3.88;;;;;;;24.59;61.16;100435.28;5054361;27;96954;-79
2021/06/26 13:24:42;;;;;;;11.60;3.30;;;;;;;24.66;59.93;100434.72;5054418;27;101542;-81
2021/06/26 13:27:08;;;;;;;4.13;3.35;;;;;;;24.77;60.29;100439.97;5057717;27;100470;-84
2021/06/26 13:29:33;;;;;;;4.60;3.30;;;;;;;25.06;59.28;100435.44;5041457;27;96922;-82
2021/06/26 13:31:59;;;;;;;4.93;4.15;;;;;;;25.01;60.10;100432.31;5058906;27;97471;-85
2021/06/26 13:34:25;;;;;;;7.28;3.75;;;;;;;25.03;59.36;100424.13;5046518;27;101154;-83
2021/06/26 13:36:51;;;;;;;4.80;4.20;;;;;;;25.13;59.98;100427.63;5052814;27;102212;-82
2021/06/26 13:39:16;;;;;;;5.60;4.15;;;;;;;25.01;58.22;100429.63;5075020;27;97163;-84
2021/06/26 13:41:42;;;;;;;9.52;4.55;;;;;;;25.12;58.26;100427.81;5075776;27;96984;-82
2021/06/26 13:44:07;;;;;;;6.55;4.93;;;;;;;25.28;58.54;100423.56;5042084;27;101982;-91
2021/06/26 13:46:33;;;;;;;6.70;4.85;;;;;;;25.29;58.86;100419.03;5040386;27;101682;-90
2021/06/26 13:48:59;;;;;;;7.32;4.88;;;;;;;25.23;59.49;100409.72;5051476;27;97316;-89
2021/06/26 13:51:26;;;;;;;8.02;4.90;;;;;;;25.33;60.25;100406.16;5057227;27;96933;-89
2021/06/26 13:53:52;;;;;;;6.90;4.85;;;;;;;25.17;60.46;100406.78;5034909;27;101173;-89
2021/06/26 13:56:18;;;;;;;4.32;3.92;;;;;;;25.04;59.93;100398.97;5053508;27;100540;-88
2021/06/26 13:58:43;;;;;;;6.60;4.80;;;;;;;25.10;59.57;100392.19;5056829;27;97397;-89
2021/06/26 14:01:09;;;;;;;5.85;4.50;;;;;;;25.25;59.58;100388.94;5057859;27;96779;-88
2021/06/26 14:03:35;;;;;;;6.22;3.80;;;;;;;25.19;59.61;100396.72;5039819;27;100131;-89
2021/06/26 14:06:00;;;;;;;4.68;4.28;;;;;;;25.07;59.63;100386.13;5052635;27;100999;-89
2021/06/26 14:08:26;;;;;;;6.38;4.40;;;;;;;25.07;58.96;100386.13;5035793;27;97050;-90
2021/06/26 14:10:53;;;;;;;6.50;4.22;;;;;;;25.10;59.23;100386.81;5058367;27;97026;-91
2021/06/26 14:13:19;;;;;;;5.80;4.30;;;;;;;25.04;58.69;100391.75;5039365;27;100585;-91
2021/06/26 14:15:44;;;;;;;7.53;3.95;;;;;;;25.09;59.09;100388.66;5042088;27;101867;-89
2021/06/26 14:18:10;;;;;;;6.85;3.75;;;;;;;25.06;59.08;100386.25;5040801;27;97140;-88
2021/06/26 14:20:36;;;;;;;12.27;4.25;;;;;;;25.11;58.49;100384.00;5035064;27;97558;-89
2021/06/26 14:23:02;;;;;;;8.23;4.22;;;;;;;25.11;57.69;100380.47;5044200;27;100357;-88
2021/06/26 14:25:28;;;;;;;4.43;3.30;;;;;;;24.87;58.24;100386.28;5041396;27;101579;-88
2021/06/26 14:27:53;;;;;;;6.72;3.33;;;;;;;24.72;57.95;100385.84;5059215;27;97285;-83
2021/06/26 14:30:20;;;;;;;3.78;3.28;;;;;;;24.66;57.73;100379.22;5053702;27;97048;-81
2021/06/26 14:32:46;;;;;;;6.82;3.03;;;;;;;24.65;57.50;100371.31;5045541;27;101044;-80
2021/06/26 14:35:11;;;;;;;4.75;3.10;;;;;;;24.91;57.27;100374.28;5050348;27;101399;-81
2021/06/26 14:37:37;;;;;;;5.47;3.42;;;;;;;24.92;57.32;100376.81;5029066;27;97368;-84
2021/06/26 14:40:05;;;;;;;3.72;3.30;;;;;;;24.94;57.26;100372.16;5034183;27;97194;-84
2021/06/26 14:42:31;;;;;;;3.78;3.20;;;;;;;24.96;57.49;100374.66;5046518;27;101555;-84
2021/06/26 14:44:57;;;;;;;5.82;3.83;;;;;;;24.80;57.31;100370.75;5037405;27;101597;-84
2021/06/26 14:47:22;;;;;;;6.35;3.55;;;;;;;24.90;57.18;100369.88;5030861;27;97403;-83
2021/06/26 14:49:49;;;;;;;6.90;4.85;;;;;;;24.98;56.99;100362.78;5053247;27;96914;-84
2021/06/26 14:52:14;;;;;;;9.23;4.45;;;;;;;24.86;57.37;100369.31;5047848;27;100263;-85
2021/06/26 14:54:41;;;;;;;5.22;4.20;;;;;;;25.02;56.48;100360.69;5051044;27;101378;-86
2021/06/26 14:57:07;;;;;;;5.95;4.45;;;;;;;25.03;55.91;100355.16;5030779;27;97173;-87
2021/06/26 14:59:33;;;;;;;6.80;4.05;;;;;;;25.23;55.49;100371.28;5053767;27;96839;-84
2021/06/26 15:02:00;;;;;;;7.13;4.57;;;;;;;25.20;55.58;100366.19;5047700;27;101563;-85
2021/06/26 15:04:25;;;;;;;6.15;4.60;;;;;;;25.24;55.14;100362.22;5045968;27;101395;-81
2021/06/26 15:06:51;;;;;;;4.55;4.15;;;;;;;25.26;54.83;100358.38;5027468;27;96946;-82
2021/06/26 15:09:17;;;;;;;7.78;5.38;;;;;;;25.24;54.77;100362.22;5028355;27;97013;-81
2021/06/26 15:11:42;;;;;;;5.35;4.57;;;;;;;25.26;54.25;100363.75;5029438;27;101583;-81
2021/06/26 15:14:08;;;;;;;6.10;4.93;;;;;;;25.26;53.66;100357.53;5026308;27;100920;-79
2021/06/26 15:16:33;;;;;;;10.57;5.57;;;;;;;25.28;53.37;100359.09;5043586;27;97154;-79
2021/06/26 15:18:59;;;;;;;11.77;5.10;;;;;;;25.25;54.28;100356.72;5063677;27;97245;-80
2021/06/26 15:21:25;;;;;;;9.80;4.68;;;;;;;25.32;53.40;100361.50;5063784;27;98047;-81
2021/06/26 15:23:51;;;;;;;9.25;5.22;;;;;;;25.25;53.29;100370.13;5048338;27;98239;-81
2021/06/26 15:26:17;;;;;;;8.35;5.35;;;;;;;25.25;52.94;100366.59;5020847;27;97512;-81
2021/06/26 15:28:43;;;;;;;5.65;5.00;;;;;;;25.24;52.30;100357.69;5031298;27;97152;-81
2021/06/26 15:31:08;;;;;;;6.22;4.95;;;;;;;25.24;52.74;100370.28;5048948;27;98213;-80
2021/06/26 15:33:34;;;;;;;5.47;4.38;;;;;;;25.26;52.06;100357.53;5035104;27;101474;-81
2021/06/26 15:36:00;;;;;;;5.78;4.70;;;;;;;25.14;52.45;100358.72;5046666;27;97250;-82
2021/06/26 15:38:27;;;;;;;5.78;4.57;;;;;;;25.14;52.40;100358.72;5050420;27;98326;-82
2021/06/26 15:40:59;;;;;;;8.00;4.35;;;;;;;25.15;52.94;100355.88;5043370;27;101422;-83
2021/06/26 15:43:25;;;;;;;5.97;4.50;;;;;;;25.10;53.24;100352.72;5049510;27;101615;-83
2021/06/26 15:45:53;;;;;;;6.93;5.13;;;;;;;25.07;53.52;100353.03;5065801;27;97234;-83
2021/06/26 15:48:19;;;;;;;9.05;5.60;;;;;;;25.02;53.34;100345.44;5055224;27;97338;-84
2021/06/26 15:50:50;;;;;;;7.75;5.28;;;;;;;25.05;53.33;100349.66;5037957;27;100522;-83
2021/06/26 15:53:16;;;;;;;5.47;4.43;;;;;;;25.02;53.37;100352.63;5040969;27;101089;-83
2021/06/26 15:55:42;;;;;;;5.40;4.22;;;;;;;25.11;53.12;100348.25;5043828;27;97073;-83
2021/06/26 15:58:08;;;;;;;8.68;5.07;;;;;;;25.16;52.70;100354.91;5037849;27;97140;-86
2021/06/26 16:00:35;;;;;;;4.65;4.20;;;;;;;25.20;51.81;100342.84;5034496;27;101285;-84
2021/06/26 16:03:00;;;;;;;7.22;5.13;;;;;;;25.08;51.11;100350.22;5036260;27;101572;-84
2021/06/26 16:05:26;;;;;;;6.60;5.93;;;;;;;24.95;50.58;100344.28;5054195;27;97185;-84
2021/06/26 16:07:52;;;;;;;9.00;4.95;;;;;;;25.06;50.62;100354.88;5036121;27;96996;-83
2021/06/26 16:10:19;;;;;;;7.03;5.45;;;;;;;25.33;51.43;100347.06;5052863;27;98444;-85
2021/06/26 16:12:44;;;;;;;5.55;5.05;;;;;;;25.24;51.20;100346.09;5033798;27;101208;-83
2021/06/26 16:15:11;;;;;;;6.65;4.82;;;;;;;25.21;51.30;100341.00;5033969;27;97194;-84
2021/06/26 16:17:37;;;;;;;8.00;5.03;;;;;;;25.13;51.64;100347.06;5034546;27;97297;-83
2021/06/26 16:20:04;;;;;;;21.08;5.65;;;;;;;25.09;51.68;100345.69;5017148;27;101835;-84
2021/06/26 16:22:30;;;;;;;4.68;4.28;;;;;;;25.00;50.92;100344.72;5036042;27;100957;-84
2021/06/26 16:24:56;;;;;;;5.35;4.53;;;;;;;24.89;50.93;100344.03;5054856;27;97195;-84
2021/06/26 16:27:21;;;;;;;8.25;4.55;;;;;;;24.86;50.95;100353.22;5033675;27;97369;-83
2021/06/26 16:29:47;;;;;;;9.43;4.75;;;;;;;24.68;51.18;100346.88;5053727;27;101364;-86
2021/06/26 16:32:12;;;;;;;7.47;4.63;;;;;;;24.71;51.60;100354.66;5050963;27;97432;-85
2021/06/26 16:34:38;;;;;;;6.03;5.07;;;;;;;24.59;51.73;100348.59;5046137;27;97202;-84
2021/06/26 16:37:08;;;;;;;8.70;5.13;;;;;;;24.53;52.11;100344.63;5048536;27;97504;-83
2021/06/26 16:39:48;;;;;;;11.98;4.40;;;;;;;24.24;52.43;100339.22;5054588;27;101195;-83
2021/06/26 16:42:18;;;;;;;7.22;5.03;;;;;;;24.32;52.02;100334.00;5052455;27;101405;-85
2021/06/26 16:44:45;;;;;;;8.10;4.38;;;;;;;24.29;52.56;100336.09;5039306;27;97087;-83
2021/06/26 16:47:11;;;;;;;6.10;4.88;;;;;;;24.18;52.42;100335.25;5041830;27;97051;-82
2021/06/26 16:49:36;;;;;;;10.45;5.00;;;;;;;24.13;53.22;100342.03;5057141;27;101558;-82
2021/06/26 16:52:02;;;;;;;4.55;4.10;;;;;;;24.14;52.39;100335.69;5050398;27;100919;-81
2021/06/26 16:54:30;;;;;;;5.63;5.10;;;;;;;24.10;52.34;100323.53;5073741;27;97124;-83
2021/06/26 16:56:55;;;;;;;9.55;7.40;;;;;;;24.02;52.71;100329.59;5056620;27;97342;-83
2021/06/26 16:59:21;;;;;;;10.05;6.32;;;;;;;24.07;52.89;100335.38;5053788;27;98503;-83
2021/06/26 17:01:47;;;;;;;7.38;5.18;;;;;;;24.13;52.86;100331.31;5028696;27;101367;-84
2021/06/26 17:04:13;;;;;;;8.05;5.25;;;;;;;24.15;53.31;100326.66;5071500;27;96772;-84
2021/06/26 17:06:39;;;;;;;8.93;5.22;;;;;;;24.25;53.16;100327.50;5055637;27;96770;-84
2021/06/26 17:09:04;;;;;;;4.93;4.40;;;;;;;24.24;53.55;100328.50;5054722;27;101843;-83
2021/06/26 17:11:30;;;;;;;5.10;4.65;;;;;;;24.16;53.62;100329.19;5049107;27;101574;-85
2021/06/26 17:13:56;;;;;;;7.35;4.78;;;;;;;24.10;53.84;100334.28;5055163;27;96812;-84
2021/06/26 17:16:22;;;;;;;5.68;4.75;;;;;;;24.05;53.32;100333.84;5036684;27;97196;-83
2021/06/26 17:18:48;;;;;;;6.43;5.15;;;;;;;24.03;53.09;100333.97;5040389;27;101284;-83
2021/06/26 17:21:13;;;;;;;6.88;6.28;;;;;;;24.03;52.92;100328.63;5037941;27;101535;-83
2021/06/26 17:23:39;;;;;;;7.93;6.97;;;;;;;23.97;53.39;100336.34;5054665;27;97097;-83
2021/06/26 17:26:04;;;;;;;7.90;6.10;;;;;;;23.91;53.22;100338.63;5041195;27;97035;-83
2021/06/26 17:28:32;;;;;;;12.60;6.22;;;;;;;23.90;53.56;100341.41;5050980;27;101293;-84
2021/06/26 17:30:58;;;;;;;8.43;7.60;;;;;;;23.86;53.71;100332.81;5057017;27;101401;-81
2021/06/26 17:33:25;;;;;;;10.27;4.97;;;;;;;23.77;54.05;100338.16;5031732;27;97477;-85
2021/06/26 17:35:51;;;;;;;9.48;4.80;;;;;;;23.74;54.74;100339.28;5046093;27;97265;-84
2021/06/26 17:38:17;;;;;;;5.85;4.47;;;;;;;23.68;54.58;100335.28;5057864;27;98517;-88
2021/06/26 17:40:43;;;;;;;10.73;5.85;;;;;;;23.56;54.54;100335.50;5055047;27;100790;-87
2021/06/26 17:43:09;;;;;;;10.18;8.55;;;;;;;23.55;54.58;100336.50;5037229;27;97211;-80
2021/06/26 17:45:36;;;;;;;6.47;5.20;;;;;;;23.45;54.81;100339.97;5051698;27;97203;-80
2021/06/26 17:48:02;;;;;;;5.75;4.70;;;;;;;23.49;55.11;100338.72;5030222;27;102335;-80
2021/06/26 17:50:28;;;;;;;6.80;4.80;;;;;;;23.48;55.02;100336.19;5035776;27;101240;-80
2021/06/26 17:52:54;;;;;;;5.10;4.53;;;;;;;23.49;54.93;100337.88;5034298;27;96859;-81
2021/06/26 17:55:20;;;;;;;6.20;5.10;;;;;;;23.40;55.37;100336.84;5044222;27;96943;-81
2021/06/26 17:57:45;;;;;;;6.95;5.10;;;;;;;23.35;55.46;100333.72;5028731;27;102095;-82
2021/06/26 18:00:13;;;;;;;9.82;5.75;;;;;;;23.42;55.86;100337.56;5035963;27;101159;-83
2021/06/26 18:02:40;;;;;;;11.57;5.40;;;;;;;23.39;55.78;100335.16;5049673;27;96854;-81
2021/06/26 18:05:08;;;;;;;10.30;5.43;;;;;;;23.39;55.71;100337.84;5029299;27;97495;-81
2021/06/26 18:07:34;;;;;;;10.48;5.50;;;;;;;23.41;56.08;100337.69;5046778;27;101217;-81
2021/06/26 18:10:02;;;;;;;6.80;5.95;;;;;;;23.42;56.25;100334.06;5034885;27;101823;-83
2021/06/26 18:12:29;;;;;;;7.72;6.43;;;;;;;23.38;56.58;100340.66;5037292;27;96888;-82
2021/06/26 18:14:55;;;;;;;12.32;6.80;;;;;;;23.34;56.72;100349.94;5053479;27;97281;-81
2021/06/26 18:17:21;;;;;;;9.10;6.43;;;;;;;23.36;57.59;100347.97;5051883;27;101507;-83
2021/06/26 18:19:47;;;;;;;11.65;7.10;;;;;;;23.40;58.77;100352.94;5044451;27;100900;-83
2021/06/26 18:22:12;;;;;;;10.43;7.35;;;;;;;23.30;59.36;100354.72;5038383;27;96826;-85
2021/06/26 18:24:38;;;;;;;7.97;6.22;;;;;;;23.36;59.65;100356.00;5037171;27;97358;-85
2021/06/26 18:27:04;;;;;;;10.98;7.40;;;;;;;23.16;60.38;100352.41;5056532;27;101136;-83
2021/06/26 18:29:29;;;;;;;8.05;6.78;;;;;;;23.16;60.31;100363.94;5051890;27;101571;-83
2021/06/26 18:31:55;;;;;;;9.88;6.75;;;;;;;23.18;60.23;100353.94;5071336;27;97350;-82
2021/06/26 18:34:21;;;;;;;16.60;8.63;;;;;;;23.02;60.58;100359.75;5051808;27;97209;-82
2021/06/26 18:36:47;;;;;;;17.40;8.50;;;;;;;22.98;60.73;100358.34;5032510;27;101526;-82
2021/06/26 18:39:13;;;;;;;12.95;8.10;;;;;;;23.06;60.69;100371.06;5055206;27;98515;-83
2021/06/26 18:41:38;;;;;;;11.85;7.20;;;;;;;23.02;61.00;100377.66;5052683;27;97170;-82
2021/06/26 18:44:05;;;;;;;10.30;7.10;;;;;;;22.92;61.34;100369.53;5037127;27;97237;-81
2021/06/26 18:46:31;;;;;;;13.82;8.45;;;;;;;22.87;61.79;100371.75;5044103;27;101553;-81
2021/06/26 18:48:57;;;;;;;28.77;19.20;;;;;;;22.88;61.91;100377.94;5030701;27;101366;-82
2021/06/26 18:51:23;;;;;;;38.13;27.33;;;;;;;22.80;61.95;100375.91;5045954;27;96917;-82
2021/06/26 18:53:49;;;;;;;17.13;11.35;;;;;;;22.85;61.21;100383.56;5071969;27;97375;-82
2021/06/26 18:56:15;;;;;;;10.88;7.55;;;;;;;22.71;61.72;100390.06;5043174;27;99250;-85
2021/06/26 18:58:46;;;;;;;11.88;6.85;;;;;;;22.66;61.48;100384.25;5035590;27;101541;-83
2021/06/26 19:01:16;;;;;;;13.55;7.47;;;;;;;22.61;61.89;100390.00;5037215;27;96828;-84
2021/06/26 19:03:43;;;;;;;7.80;7.00;;;;;;;22.77;60.94;100384.19;5045657;27;97404;-85
2021/06/26 19:06:09;;;;;;;15.02;8.70;;;;;;;22.54;61.59;100386.13;5055808;27;101406;-84
2021/06/26 19:08:35;;;;;;;13.45;7.78;;;;;;;22.47;62.26;100393.81;5049193;27;97478;-84
2021/06/26 19:11:01;;;;;;;13.23;7.55;;;;;;;22.37;62.29;100388.38;5049102;27;96723;-85
2021/06/26 19:13:28;;;;;;;14.43;7.88;;;;;;;22.49;62.14;100388.34;5053620;27;97086;-84
2021/06/26 19:15:56;;;;;;;14.35;7.68;;;;;;;22.63;62.00;100392.53;5052597;27;98078;-89
2021/06/26 19:18:22;;;;;;;13.32;11.82;;;;;;;22.50;62.87;100395.38;5029639;27;101316;-89
2021/06/26 19:20:48;;;;;;;10.57;7.72;;;;;;;22.55;62.91;100395.88;5030435;27;97673;-89
2021/06/26 19:23:15;;;;;;;12.77;8.13;;;;;;;22.46;62.96;100388.59;5034172;27;97155;-85
2021/06/26 19:25:48;;;;;;;12.13;8.52;;;;;;;22.52;62.54;100393.44;5051091;27;101750;-91
2021/06/26 19:28:15;;;;;;;11.43;8.02;;;;;;;22.53;62.87;100393.31;5047965;27;100142;-86
2021/06/26 19:30:42;;;;;;;12.27;8.48;;;;;;;22.48;63.01;100387.47;5045963;27;97392;-90
2021/06/26 19:33:08;;;;;;;12.93;8.80;;;;;;;22.38;63.28;100389.22;5046500;27;97252;-89
2021/06/26 19:35:33;;;;;;;9.63;8.52;;;;;;;22.34;63.87;100393.13;5034765;27;101347;-91
2021/06/26 19:37:59;;;;;;;16.70;8.77;;;;;;;22.40;63.74;100387.28;5044211;27;100352;-88
2021/06/26 19:40:25;;;;;;;12.48;8.75;;;;;;;22.42;63.92;100393.34;5049228;27;97394;-91
2021/06/26 19:42:51;;;;;;;11.45;8.35;;;;;;;22.39;64.40;100396.25;5034238;27;97170;-89
2021/06/26 19:45:17;;;;;;;12.20;9.00;;;;;;;22.41;64.27;100386.28;5043968;27;101153;-84
2021/06/26 19:47:42;;;;;;;17.10;9.55;;;;;;;22.40;64.40;100397.97;5026390;27;100921;-82
2021/06/26 19:50:09;;;;;;;15.18;9.52;;;;;;;22.32;64.84;100398.59;5028634;27;97995;-84
2021/06/26 19:52:34;;;;;;;13.00;8.82;;;;;;;22.29;65.06;100388.16;5042885;27;97387;-84
2021/06/26 19:55:00;;;;;;;15.00;9.73;;;;;;;22.30;64.82;100392.53;5027530;27;101398;-84
2021/06/26 19:57:26;;;;;;;15.75;9.15;;;;;;;22.26;64.94;100392.91;5039805;27;101525;-84
2021/06/26 19:59:51;;;;;;;11.85;10.40;;;;;;;22.25;65.49;100399.22;5050689;27;97538;-85
2021/06/26 20:02:17;;;;;;;23.20;18.05;;;;;;;22.24;65.37;100397.53;5068729;27;97301;-85
2021/06/26 20:04:42;;;;;;;17.88;11.50;;;;;;;22.16;65.51;100395.44;5048230;27;100266;-85
2021/06/26 20:07:08;;;;;;;13.35;9.15;;;;;;;22.09;65.53;100402.28;5062967;27;98472;-85
2021/06/26 20:09:35;;;;;;;17.27;9.93;;;;;;;21.98;65.95;100396.94;5034784;27;98048;-84
2021/06/26 20:12:01;;;;;;;13.73;10.82;;;;;;;21.95;66.04;100397.19;5049726;27;97383;-85
2021/06/26 20:14:27;;;;;;;17.95;10.25;;;;;;;21.92;66.20;100403.63;5029625;27;101621;-85
2021/06/26 20:16:52;;;;;;;15.45;9.38;;;;;;;21.96;66.00;100406.88;5029912;27;101362;-85
2021/06/26 20:19:19;;;;;;;13.52;9.35;;;;;;;21.92;65.82;100407.13;5070854;27;96786;-90
2021/06/26 20:21:45;;;;;;;13.93;9.88;;;;;;;21.80;66.56;100404.59;5050820;27;97018;-92
2021/06/26 20:24:11;;;;;;;17.20;9.80;;;;;;;21.76;66.53;100412.03;5061108;27;101225;-91
2021/06/26 20:26:37;;;;;;;19.02;12.57;;;;;;;21.72;66.55;100410.56;5059460;27;98297;-90
2021/06/26 20:29:03;;;;;;;19.88;11.77;;;;;;;21.76;66.83;100408.47;5055014;27;97245;-92
2021/06/26 20:31:29;;;;;;;15.05;11.32;;;;;;;21.67;67.18;100408.25;5052376;27;97447;-90
2021/06/26 20:33:55;;;;;;;13.43;10.23;;;;;;;21.75;67.39;100409.47;5061080;27;97526;-90
2021/06/26 20:36:22;;;;;;;12.55;10.20;;;;;;;21.70;67.40;100407.16;5040438;27;100335;-89
2021/06/26 20:38:47;;;;;;;13.32;9.10;;;;;;;21.67;67.68;100407.38;5057034;27;97157;-90
2021/06/26 20:41:13;;;;;;;13.90;8.77;;;;;;;21.66;67.65;100409.22;5036772;27;97161;-90
2021/06/26 20:43:39;;;;;;;15.35;10.15;;;;;;;21.53;68.14;100411.16;5060259;27;99082;-90
2021/06/26 20:46:04;;;;;;;16.17;9.82;;;;;;;21.55;68.09;100408.34;5040869;27;100759;-89
2021/06/26 20:48:30;;;;;;;13.05;9.68;;;;;;;21.50;67.88;100410.53;5076952;27;97045;-88
2021/06/26 20:50:57;;;;;;;13.95;10.63;;;;;;;21.43;67.97;100411.00;5048620;27;98005;-90
2021/06/26 20:53:23;;;;;;;11.18;9.65;;;;;;;21.51;67.89;100413.09;5050473;27;98462;-91
2021/06/26 20:55:49;;;;;;;12.88;10.48;;;;;;;21.49;67.72;100425.72;5040879;27;101676;-90
2021/06/26 20:58:16;;;;;;;12.18;10.45;;;;;;;21.36;67.76;100423.16;5036840;27;97419;-90
2021/06/26 21:00:42;;;;;;;12.98;10.50;;;;;;;21.36;67.54;100420.50;5044063;27;96926;-90
2021/06/26 21:03:07;;;;;;;17.25;10.82;;;;;;;21.32;67.79;100428.81;5060992;27;98417;-90
2021/06/26 21:05:33;;;;;;;11.68;9.82;;;;;;;21.29;67.78;100423.72;5077779;27;98195;-90
2021/06/26 21:07:58;;;;;;;16.58;10.68;;;;;;;21.28;67.93;100424.69;5061775;27;96655;-91
2021/06/26 21:10:30;;;;;;;12.43;10.43;;;;;;;21.22;68.13;100421.50;5038820;27;96873;-92
2021/06/26 21:12:56;;;;;;;15.48;11.70;;;;;;;21.17;68.33;100418.34;5050981;27;101517;-89
2021/06/26 21:15:22;;;;;;;16.98;12.30;;;;;;;21.16;68.19;100422.00;5030440;27;100947;-92
2021/06/26 21:17:47;;;;;;;13.82;12.32;;;;;;;21.13;68.39;100418.72;5045163;27;97413;-91
2021/06/26 21:20:13;;;;;;;15.02;12.10;;;;;;;21.14;68.13;100418.56;5050235;27;97096;-90
2021/06/26 21:22:41;;;;;;;18.75;11.98;;;;;;;21.12;68.12;100420.53;5049901;27;101384;-92
2021/06/26 21:25:09;;;;;;;12.98;11.60;;;;;;;21.10;68.21;100416.28;5039313;27;99403;-91
2021/06/26 21:27:35;;;;;;;13.57;12.27;;;;;;;20.98;68.83;100418.91;5059557;27;97253;-90
2021/06/26 21:30:02;;;;;;;13.57;11.38;;;;;;;20.97;68.76;100419.88;5041017;27;96999;-92
2021/06/26 21:32:28;;;;;;;12.20;11.07;;;;;;;21.00;68.76;100424.13;5040937;27;100393;-92
2021/06/26 21:34:54;;;;;;;14.45;11.23;;;;;;;21.05;68.72;100437.97;5074879;27;98422;-91
2021/06/26 21:37:19;;;;;;;13.90;12.40;;;;;;;21.12;68.64;100433.88;5032498;27;96774;-90
2021/06/26 21:39:45;;;;;;;14.40;11.90;;;;;;;21.17;68.35;100423.69;5054542;27;97029;-90
2021/06/26 21:42:10;;;;;;;16.10;11.90;;;;;;;21.11;68.51;100429.50;5057716;27;97210;-94
2021/06/26 21:44:36;;;;;;;14.07;11.18;;;;;;;21.08;68.70;100419.06;5039691;27;100844;-89
2021/06/26 21:47:02;;;;;;;16.35;11.52;;;;;;;21.05;68.67;100423.78;5040355;27;96750;-89
2021/06/26 21:49:28;;;;;;;14.55;11.75;;;;;;;21.06;68.64;100425.47;5056100;27;97011;-91
2021/06/26 21:51:53;;;;;;;12.50;11.20;;;;;;;21.11;68.67;100417.97;5040168;27;101339;-91
2021/06/26 21:54:19;;;;;;;12.60;11.05;;;;;;;21.05;68.88;100413.09;5043450;27;101732;-88
2021/06/26 21:56:45;;;;;;;12.50;11.25;;;;;;;21.01;68.93;100417.84;5061099;27;96603;-91
2021/06/26 21:59:11;;;;;;;13.18;10.60;;;;;;;21.04;68.87;100412.25;5059086;27;97325;-90
2021/06/26 22:01:37;;;;;;;12.40;10.40;;;;;;;21.01;68.76;100413.34;5037148;27;101070;-90
2021/06/26 22:04:02;;;;;;;12.90;10.00;;;;;;;21.11;68.60;100409.97;5036161;27;101824;-90
2021/06/26 22:06:28;;;;;;;12.40;11.05;;;;;;;21.03;68.77;100416.75;5055768;27;96939;-91
2021/06/26 22:08:53;;;;;;;14.35;11.32;;;;;;;20.96;69.19;100407.50;5036950;27;98000;-92
2021/06/26 22:11:19;;;;;;;13.07;11.68;;;;;;;20.93;69.33;100412.22;5048660;27;99244;-89
2021/06/26 22:13:48;;;;;;;12.23;10.48;;;;;;;20.98;69.25;100418.06;5039998;27;99783;-92
2021/06/26 22:16:17;;;;;;;13.48;10.85;;;;;;;20.99;69.14;100415.25;5034432;27;96798;-91
2021/06/26 22:18:47;;;;;;;12.80;10.35;;;;;;;20.98;69.14;100412.72;5034835;27;97119;-90
2021/06/26 22:21:14;;;;;;;13.45;10.82;;;;;;;20.97;69.24;100414.56;5042101;27;101067;-90
2021/06/26 22:23:40;;;;;;;12.35;10.95;;;;;;;20.91;69.22;100415.00;5059759;27;98374;-90
2021/06/26 22:26:06;;;;;;;13.50;10.65;;;;;;;20.90;69.48;100426.63;5043796;27;96705;-89
2021/06/26 22:28:32;;;;;;;12.07;10.82;;;;;;;20.89;69.37;100418.78;5043100;27;96804;-89
2021/06/26 22:30:58;;;;;;;13.25;11.90;;;;;;;20.97;69.00;100424.34;5056623;27;100666;-90
2021/06/26 22:33:24;;;;;;;13.20;10.77;;;;;;;20.94;69.17;100428.13;5042418;27;100112;-89
2021/06/26 22:35:50;;;;;;;13.30;11.00;;;;;;;21.00;68.98;100424.13;5037609;27;96909;-89
2021/06/26 22:38:16;;;;;;;14.00;10.60;;;;;;;20.95;69.04;100424.47;5043243;27;97057;-90
2021/06/26 22:40:44;;;;;;;14.02;10.50;;;;;;;20.94;69.04;100430.78;5059819;27;98523;-90
2021/06/26 22:43:10;;;;;;;12.00;10.85;;;;;;;20.89;68.91;100430.28;5038957;27;101475;-91
2021/06/26 22:45:35;;;;;;;10.88;9.77;;;;;;;20.78;69.43;100436.41;5060278;27;97022;-90
2021/06/26 22:48:01;;;;;;;11.88;10.30;;;;;;;20.72;69.62;100430.69;5078975;27;97014;-91
2021/06/26 22:50:27;;;;;;;12.57;10.35;;;;;;;20.74;69.50;100437.63;5059209;27;100077;-90
2021/06/26 22:52:54;;;;;;;12.00;10.70;;;;;;;20.73;69.47;100421.72;5042614;27;101096;-91
2021/06/26 22:55:20;;;;;;;12.27;10.80;;;;;;;20.67;69.65;100430.19;5043359;27;96757;-90
2021/06/26 22:57:46;;;;;;;12.35;11.07;;;;;;;20.65;69.31;100429.44;5077099;27;96965;-90
2021/06/26 23:00:19;;;;;;;11.23;10.23;;;;;;;20.53;69.82;100426.72;5058957;27;101042;-90
2021/06/26 23:02:44;;;;;;;11.73;10.02;;;;;;;20.53;69.77;100428.53;5038858;27;101929;-90
2021/06/26 23:05:11;;;;;;;13.93;11.45;;;;;;;20.56;69.66;100437.16;5050683;27;97034;-91
2021/06/26 23:07:37;;;;;;;15.57;11.40;;;;;;;20.44;69.77;100430.03;5039095;27;97106;-89
2021/06/26 23:10:07;;;;;;;12.48;11.13;;;;;;;20.42;69.96;100439.09;5043498;27;98466;-91
2021/06/26 23:12:33;;;;;;;12.48;11.15;;;;;;;20.39;70.00;100436.66;5061039;27;99442;-90